Time;durP1;ratioP1;P1;durP2;ratioP2;P2;SDS_P1;SDS_P2;PMS_P1;PMS_P2;Temp;Humidity;BMP_temperature;BMP_pressure;BME280_temperature;BME280_humidity;BME280_pressure;Samples;Min_cycle;Max_cycle;Signal;HPM_P1;HPM_P2
2022/04/15 00:02:14;;;;;;;11.07;5.95;;;8.70;99.90;;;;;;4998620;28;20033;-88
2022/04/15 00:04:59;;;;;;;8.88;6.07;;;8.70;99.90;;;;;;4998295;28;20477;-88
2022/04/15 00:07:25;;;;;;;12.30;6.88;;;8.70;99.90;;;;;;5014776;28;20030;-87
2022/04/15 00:10:23;;;;;;;8.27;6.30;;;8.70;99.90;;;;;;5015753;28;20080;-88
2022/04/15 00:12:49;;;;;;;8.35;6.40;;;8.70;99.90;;;;;;4998246;28;20072;-88
2022/04/15 00:15:15;;;;;;;9.30;7.05;;;8.70;99.90;;;;;;4997848;28;20042;-87
2022/04/15 00:17:41;;;;;;;12.00;7.55;;;8.60;99.90;;;;;;4997988;28;20045;-87
2022/04/15 00:20:07;;;;;;;14.15;8.43;;;8.60;99.90;;;;;;4981349;28;20065;-87
2022/04/15 00:22:33;;;;;;;12.10;8.63;;;8.50;99.90;;;;;;4990232;28;20030;-87
2022/04/15 00:24:59;;;;;;;20.75;11.00;;;8.60;99.90;;;;;;4998131;28;20045;-88
2022/04/15 00:27:24;;;;;;;16.00;9.75;;;8.60;99.90;;;;;;4997633;28;20053;-87
2022/04/15 00:30:21;;;;;;;13.45;9.88;;;8.60;99.90;;;;;;4997516;28;20034;-87
2022/04/15 00:32:47;;;;;;;18.88;11.50;;;8.70;99.90;;;;;;4997335;28;20482;-88
2022/04/15 00:35:13;;;;;;;18.83;12.25;;;8.80;99.90;;;;;;4997242;28;20041;-87
2022/04/15 00:37:38;;;;;;;20.38;13.15;;;9.00;99.90;;;;;;4997409;28;20034;-88
2022/04/15 00:40:07;;;;;;;20.60;13.75;;;9.20;99.90;;;;;;4997071;28;20486;-88
2022/04/15 00:43:04;;;;;;;19.80;12.50;;;9.40;99.90;;;;;;4997247;28;20424;-88
2022/04/15 00:45:30;;;;;;;18.85;12.90;;;9.60;99.90;;;;;;4997635;28;20397;-88
2022/04/15 00:47:57;;;;;;;19.85;12.90;;;9.70;99.90;;;;;;4997803;28;20038;-88
2022/04/15 00:50:30;;;;;;;22.42;12.93;;;9.80;99.90;;;;;;4997560;28;20116;-88
2022/04/15 00:53:01;;;;;;;20.83;13.65;;;9.80;99.90;;;;;;5013667;28;20042;-88
2022/04/15 00:55:27;;;;;;;20.73;13.63;;;9.90;99.90;;;;;;5013832;28;20108;-88
2022/04/15 00:57:56;;;;;;;25.90;14.68;;;9.90;99.90;;;;;;5013931;28;20466;-88
2022/04/15 01:00:23;;;;;;;22.23;15.05;;;9.90;99.90;;;;;;4997418;28;20072;-88
2022/04/15 01:02:50;;;;;;;30.55;15.27;;;9.80;99.90;;;;;;5013629;28;20038;-88
2022/04/15 01:05:16;;;;;;;26.92;16.20;;;9.70;99.90;;;;;;4997330;28;20124;-88
2022/04/15 01:07:50;;;;;;;28.40;16.33;;;9.80;99.90;;;;;;5030129;28;20030;-87
2022/04/15 01:10:17;;;;;;;27.83;17.70;;;9.70;99.90;;;;;;5013545;28;20060;-88
2022/04/15 01:12:48;;;;;;;24.23;16.90;;;9.70;99.90;;;;;;5013766;28;20042;-88
2022/04/15 01:15:15;;;;;;;27.05;18.88;;;9.70;99.90;;;;;;5030319;28;20036;-88
2022/04/15 01:17:41;;;;;;;30.52;20.88;;;9.60;99.90;;;;;;5013099;28;20041;-88
2022/04/15 01:20:09;;;;;;;34.92;21.45;;;9.70;99.90;;;;;;5030266;28;20026;-87
2022/04/15 01:23:04;;;;;;;38.50;24.00;;;9.80;99.90;;;;;;4989200;28;20033;-88
2022/04/15 01:25:29;;;;;;;34.08;23.17;;;9.90;99.90;;;;;;5029658;28;20041;-87
2022/04/15 01:27:57;;;;;;;35.70;24.33;;;9.90;99.90;;;;;;4980609;28;20034;-88
2022/04/15 01:30:23;;;;;;;38.10;24.38;;;9.90;99.90;;;;;;5012918;28;20136;-87
2022/04/15 01:32:55;;;;;;;34.53;22.60;;;9.90;99.90;;;;;;4996679;28;20464;-88
2022/04/15 01:35:21;;;;;;;40.40;24.90;;;9.80;99.90;;;;;;5012724;28;20400;-88
2022/04/15 01:37:48;;;;;;;41.00;23.00;;;9.80;99.90;;;;;;4996075;28;20018;-87
2022/04/15 01:40:16;;;;;;;37.38;23.90;;;9.70;99.90;;;;;;4996425;28;20092;-88
2022/04/15 01:42:43;;;;;;;32.58;21.38;;;9.70;99.90;;;;;;5029257;28;20062;-88
2022/04/15 01:45:10;;;;;;;28.05;20.58;;;9.50;99.90;;;;;;5013566;28;20835;-87
2022/04/15 01:47:36;;;;;;;29.83;19.27;;;9.30;99.90;;;;;;4996521;28;20092;-87
2022/04/15 01:50:03;;;;;;;31.00;19.25;;;9.00;99.90;;;;;;4996334;28;20026;-87
2022/04/15 01:52:29;;;;;;;32.03;19.77;;;8.70;99.90;;;;;;5028890;28;20038;-87
2022/04/15 01:54:54;;;;;;;30.60;20.42;;;8.60;99.90;;;;;;5011853;28;20038;-87
2022/04/15 01:57:20;;;;;;;38.83;22.00;;;8.40;99.90;;;;;;5012682;28;20426;-87
2022/04/15 01:59:46;;;;;;;37.80;22.52;;;8.30;99.90;;;;;;4996343;28;20061;-87
2022/04/15 02:02:15;;;;;;;41.03;24.55;;;8.30;99.90;;;;;;5012247;28;20037;-87
2022/04/15 02:04:41;;;;;;;41.63;25.55;;;8.20;99.90;;;;;;4996112;28;20077;-87
2022/04/15 02:07:07;;;;;;;48.22;29.90;;;8.20;99.90;;;;;;5012298;28;20106;-87
2022/04/15 02:09:32;;;;;;;54.15;32.03;;;8.30;99.90;;;;;;5028887;28;20366;-87
2022/04/15 02:11:59;;;;;;;47.03;30.33;;;8.60;99.90;;;;;;4995590;28;20069;-87
2022/04/15 02:14:25;;;;;;;47.33;30.00;;;8.70;99.90;;;;;;4996083;28;20034;-88
2022/04/15 02:17:06;;;;;;;46.28;29.50;;;8.90;99.90;;;;;;4996018;28;20030;-87
2022/04/15 02:19:32;;;;;;;48.67;29.60;;;9.00;99.90;;;;;;4996422;28;20036;-87
2022/04/15 02:21:57;;;;;;;49.47;28.75;;;9.00;99.90;;;;;;5012641;28;20109;-87
2022/04/15 02:24:23;;;;;;;52.60;31.85;;;9.10;99.90;;;;;;5013711;28;20026;-87
2022/04/15 02:26:49;;;;;;;51.67;33.85;;;9.10;99.90;;;;;;4995817;28;20080;-87
2022/04/15 02:29:14;;;;;;;55.25;34.20;;;9.10;99.90;;;;;;4996110;28;20038;-87
2022/04/15 02:31:40;;;;;;;58.45;32.47;;;9.20;99.90;;;;;;4979729;28;20042;-87
2022/04/15 02:34:06;;;;;;;49.25;30.88;;;9.20;99.90;;;;;;4995947;28;20034;-87
2022/04/15 02:36:31;;;;;;;50.00;31.50;;;9.10;99.90;;;;;;5012129;28;20493;-87
2022/04/15 02:38:58;;;;;;;50.85;30.67;;;9.00;99.90;;;;;;4995472;28;20172;-87
2022/04/15 02:41:24;;;;;;;48.05;31.27;;;8.90;99.90;;;;;;4995331;28;20022;-87
2022/04/15 02:43:49;;;;;;;47.60;31.05;;;8.90;99.90;;;;;;5011034;28;20032;-87
2022/04/15 02:46:15;;;;;;;46.42;29.90;;;8.90;99.90;;;;;;5028475;28;20109;-87
2022/04/15 02:48:41;;;;;;;51.03;31.60;;;8.80;99.90;;;;;;5013666;28;20041;-87
2022/04/15 02:51:17;;;;;;;57.58;34.80;;;8.70;99.90;;;;;;4995834;28;20030;-87
2022/04/15 02:53:44;;;;;;;50.00;31.90;;;8.80;99.90;;;;;;4995810;28;20118;-87
2022/04/15 02:56:10;;;;;;;51.40;32.40;;;9.00;99.90;;;;;;4995812;28;20441;-87
2022/04/15 02:58:35;;;;;;;46.55;30.17;;;9.10;99.90;;;;;;5012190;28;20029;-88
2022/04/15 03:01:02;;;;;;;49.85;31.98;;;9.00;99.90;;;;;;5012004;28;20030;-87
2022/04/15 03:03:28;;;;;;;48.42;29.83;;;8.90;99.90;;;;;;5012157;28;20044;-87
2022/04/15 03:05:56;;;;;;;57.70;29.38;;;8.80;99.90;;;;;;4995859;28;20493;-87
2022/04/15 03:08:22;;;;;;;48.33;30.55;;;8.80;99.90;;;;;;4999377;28;20044;-87
2022/04/15 03:10:47;;;;;;;44.47;30.90;;;8.70;99.90;;;;;;4999465;28;20029;-87
2022/04/15 03:13:13;;;;;;;47.92;30.35;;;8.80;99.90;;;;;;5032050;28;20073;-87
2022/04/15 03:15:39;;;;;;;46.65;28.05;;;8.90;99.90;;;;;;5015879;28;20034;-87
2022/04/15 03:18:05;;;;;;;43.63;28.73;;;8.90;99.90;;;;;;5015396;28;20436;-87
2022/04/15 03:20:31;;;;;;;53.65;29.67;;;9.00;99.90;;;;;;4999245;28;20112;-87
2022/04/15 03:22:57;;;;;;;43.88;28.25;;;8.90;99.90;;;;;;4999070;28;20037;-87
2022/04/15 03:25:22;;;;;;;54.45;29.33;;;9.00;99.90;;;;;;4998775;28;20059;-87
2022/04/15 03:27:48;;;;;;;50.08;29.45;;;9.00;99.90;;;;;;4999221;28;20025;-87
2022/04/15 03:30:14;;;;;;;53.70;30.52;;;9.10;99.90;;;;;;4982938;28;20061;-87
2022/04/15 03:32:47;;;;;;;47.47;30.50;;;9.10;99.90;;;;;;4999066;28;20034;-87
2022/04/15 03:35:14;;;;;;;49.95;31.08;;;9.10;99.90;;;;;;5015378;28;20388;-87
2022/04/15 03:37:40;;;;;;;51.08;30.17;;;9.10;99.90;;;;;;5015619;28;20493;-87
2022/04/15 03:40:06;;;;;;;48.55;29.95;;;9.00;99.90;;;;;;4998828;28;20026;-87
2022/04/15 03:42:49;;;;;;;59.88;33.00;;;8.80;99.90;;;;;;4998870;28;20682;-87
2022/04/15 03:45:18;;;;;;;58.33;32.33;;;8.60;99.90;;;;;;4999338;28;20089;-87
2022/04/15 03:47:44;;;;;;;48.28;30.15;;;8.60;99.90;;;;;;5015094;28;20038;-87
2022/04/15 03:50:11;;;;;;;54.53;32.05;;;8.40;99.90;;;;;;5031705;28;20099;-87
2022/04/15 03:52:46;;;;;;;54.88;32.30;;;8.40;99.90;;;;;;4998707;28;20029;-88
2022/04/15 03:55:14;;;;;;;51.92;30.80;;;8.30;99.90;;;;;;4999081;28;20721;-87
2022/04/15 03:57:40;;;;;;;50.25;30.98;;;8.20;99.90;;;;;;5015037;28;20026;-87
2022/04/15 04:00:11;;;;;;;51.53;31.88;;;8.10;99.90;;;;;;5032034;28;20041;-87
2022/04/15 04:02:37;;;;;;;52.97;31.92;;;8.10;99.90;;;;;;4998226;28;20037;-87
2022/04/15 04:05:04;;;;;;;54.25;32.05;;;8.10;99.90;;;;;;4982788;28;20385;-87
2022/04/15 04:07:30;;;;;;;62.63;36.03;;;8.10;99.90;;;;;;5013586;28;20038;-87
2022/04/15 04:09:56;;;;;;;56.88;34.78;;;8.10;99.90;;;;;;5014116;28;20132;-87
2022/04/15 04:12:22;;;;;;;62.33;35.80;;;8.10;99.90;;;;;;4998204;28;20776;-87
2022/04/15 04:14:47;;;;;;;59.10;36.78;;;8.10;99.90;;;;;;5015601;28;20061;-87
2022/04/15 04:17:13;;;;;;;62.47;34.42;;;8.00;99.90;;;;;;4993947;28;20030;-87
2022/04/15 04:19:39;;;;;;;56.50;35.65;;;8.00;99.90;;;;;;4996591;28;20500;-87
2022/04/15 04:22:05;;;;;;;59.90;38.00;;;7.90;99.90;;;;;;4996009;28;20030;-87
2022/04/15 04:24:31;;;;;;;66.20;37.15;;;7.90;99.90;;;;;;5013623;28;20077;-87
2022/04/15 04:26:57;;;;;;;65.35;37.83;;;7.80;99.90;;;;;;5013412;28;20061;-87
2022/04/15 04:29:22;;;;;;;67.70;39.53;;;7.90;99.90;;;;;;5029969;28;20456;-86
2022/04/15 04:32:22;;;;;;;67.03;39.55;;;7.90;99.90;;;;;;5013389;28;20806;-87
2022/04/15 04:34:48;;;;;;;71.97;40.13;;;7.90;99.90;;;;;;5010724;28;20040;-87
2022/04/15 04:37:13;;;;;;;68.22;39.42;;;8.00;99.90;;;;;;5014597;28;20026;-90
2022/04/15 04:39:39;;;;;;;61.35;38.45;;;7.90;99.90;;;;;;5015219;28;20021;-90
2022/04/15 04:42:06;;;;;;;66.25;39.88;;;7.90;99.90;;;;;;4999149;28;20037;-90
2022/04/15 04:44:33;;;;;;;71.70;41.92;;;7.80;99.90;;;;;;5015768;28;20033;-91
2022/04/15 04:46:59;;;;;;;69.78;40.70;;;7.70;99.90;;;;;;5014981;28;20128;-90
2022/04/15 04:49:26;;;;;;;71.63;41.63;;;7.60;99.90;;;;;;4998484;28;20445;-90
2022/04/15 04:51:51;;;;;;;76.65;43.45;;;7.60;99.90;;;;;;4998417;28;20460;-90
2022/04/15 04:54:18;;;;;;;81.75;44.85;;;7.60;99.90;;;;;;5015395;28;20053;-90
2022/04/15 04:56:44;;;;;;;75.78;42.70;;;7.70;99.90;;;;;;4998908;28;20151;-90
2022/04/15 04:59:12;;;;;;;77.32;44.05;;;7.70;99.90;;;;;;4997922;28;20026;-91
2022/04/15 05:01:41;;;;;;;78.45;45.13;;;7.70;99.90;;;;;;4998223;28;20018;-90
2022/04/15 05:04:07;;;;;;;78.35;45.28;;;7.80;99.90;;;;;;4998345;28;20037;-90
2022/04/15 05:06:32;;;;;;;80.97;46.38;;;7.80;99.90;;;;;;4998949;28;20021;-90
2022/04/15 05:08:58;;;;;;;76.60;45.63;;;7.90;99.90;;;;;;4998698;28;20469;-91
2022/04/15 05:11:24;;;;;;;76.68;44.25;;;7.90;99.90;;;;;;5014728;28;20191;-90
2022/04/15 05:13:52;;;;;;;75.45;43.00;;;8.00;99.90;;;;;;4998362;28;20055;-90
2022/04/15 05:16:18;;;;;;;80.07;44.85;;;8.00;99.90;;;;;;4982020;28;20803;-90
2022/04/15 05:18:44;;;;;;;70.32;42.03;;;8.10;99.90;;;;;;5016066;28;20058;-90
2022/04/15 05:21:09;;;;;;;70.50;41.17;;;8.20;99.90;;;;;;4998536;28;20034;-90
2022/04/15 05:24:09;;;;;;;70.57;41.10;;;8.30;99.90;;;;;;4998237;28;20033;-90
2022/04/15 05:26:36;;;;;;;66.13;39.92;;;8.40;99.90;;;;;;4997301;28;20566;-91
2022/04/15 05:29:02;;;;;;;66.97;39.80;;;8.40;99.90;;;;;;4995981;28;20477;-90
2022/04/15 05:31:28;;;;;;;70.72;39.42;;;8.50;99.90;;;;;;5029901;28;20117;-90
2022/04/15 05:33:54;;;;;;;62.55;37.78;;;8.60;99.90;;;;;;4997666;28;20504;-91
2022/04/15 05:36:19;;;;;;;63.50;40.13;;;8.70;99.90;;;;;;4998601;28;20057;-91
2022/04/15 05:38:45;;;;;;;65.65;38.78;;;8.80;99.90;;;;;;4998000;28;20040;-90
2022/04/15 05:41:11;;;;;;;65.82;38.72;;;9.00;99.90;;;;;;5015492;28;20041;-90
2022/04/15 05:43:37;;;;;;;61.72;37.65;;;9.10;99.90;;;;;;4997847;28;20026;-91
2022/04/15 05:46:03;;;;;;;62.65;37.95;;;9.20;99.90;;;;;;5014750;28;20026;-90
2022/04/15 05:48:29;;;;;;;147.25;86.43;;;9.30;99.90;;;;;;4996810;28;20165;-90
2022/04/15 05:50:55;;;;;;;78.38;45.97;;;9.30;99.90;;;;;;5015450;28;20049;-90
2022/04/15 05:53:21;;;;;;;65.00;39.00;;;9.40;99.90;;;;;;4997785;28;20030;-90
2022/04/15 05:55:46;;;;;;;61.20;36.13;;;9.50;99.90;;;;;;5013906;28;20121;-90
2022/04/15 05:58:12;;;;;;;57.83;35.67;;;9.60;99.90;;;;;;5030292;28;20036;-89
2022/04/15 06:00:38;;;;;;;56.88;36.30;;;9.70;99.90;;;;;;4997441;28;20116;-90
2022/04/15 06:03:04;;;;;;;54.17;34.08;;;9.90;99.90;;;;;;5030097;28;20026;-90
2022/04/15 06:05:30;;;;;;;54.35;35.00;;;10.00;99.90;;;;;;4996916;28;20034;-90
2022/04/15 06:07:56;;;;;;;56.03;35.85;;;10.10;99.90;;;;;;4997001;28;20092;-90
2022/04/15 06:10:22;;;;;;;52.17;33.08;;;10.20;99.90;;;;;;4997231;28;20036;-90
2022/04/15 06:15:32;;;;;;;52.88;33.92;;;10.30;99.90;;;;;;5030339;28;20451;-91
2022/04/15 06:18:02;;;;;;;53.95;33.20;;;10.40;99.90;;;;;;5013437;28;20068;-91
2022/04/15 06:20:29;;;;;;;59.25;33.53;;;10.40;99.90;;;;;;5013559;28;20060;-92
2022/04/15 06:22:56;;;;;;;72.00;37.28;;;10.50;99.90;;;;;;4996456;28;20034;-91
2022/04/15 06:25:22;;;;;;;51.72;32.00;;;10.60;99.90;;;;;;5013283;28;20485;-91
2022/04/15 06:27:49;;;;;;;49.90;30.60;;;10.60;99.90;;;;;;4997085;28;20041;-91
2022/04/15 06:30:15;;;;;;;44.53;29.45;;;10.70;99.90;;;;;;4996493;28;20038;-92
2022/04/15 06:32:41;;;;;;;50.17;29.42;;;10.70;99.90;;;;;;4992157;28;20092;-91
2022/04/15 06:35:07;;;;;;;44.03;29.45;;;10.80;99.90;;;;;;4995813;28;20034;-91
2022/04/15 06:37:33;;;;;;;42.55;27.80;;;10.90;99.90;;;;;;4985788;28;20028;-90
2022/04/15 06:39:59;;;;;;;47.10;26.98;;;10.90;99.90;;;;;;5028897;28;20034;-91
2022/04/15 06:42:28;;;;;;;47.70;26.85;;;10.90;99.90;;;;;;4998747;28;20037;-91
2022/04/15 06:44:54;;;;;;;43.67;27.52;;;11.00;99.90;;;;;;5000609;28;20030;-91
2022/04/15 06:47:20;;;;;;;40.90;26.45;;;11.10;99.90;;;;;;5032737;28;20040;-92
2022/04/15 06:49:47;;;;;;;37.33;24.00;;;11.10;99.90;;;;;;5000428;28;20069;-91
2022/04/15 06:52:14;;;;;;;40.55;23.35;;;11.20;99.90;;;;;;5033661;28;20038;-91
2022/04/15 06:54:40;;;;;;;35.08;22.77;;;11.30;99.90;;;;;;5000793;28;20041;-91
2022/04/15 06:57:07;;;;;;;34.78;22.92;;;11.30;99.90;;;;;;5018212;28;20036;-91
2022/04/15 06:59:33;;;;;;;37.65;21.33;;;11.40;99.90;;;;;;5000864;28;20030;-91
2022/04/15 07:02:07;;;;;;;34.50;22.00;;;11.50;99.90;;;;;;5000494;28;20030;-92
2022/04/15 07:04:37;;;;;;;32.50;21.45;;;11.50;99.90;;;;;;5033408;28;20089;-91
2022/04/15 07:07:03;;;;;;;31.70;20.10;;;11.60;99.90;;;;;;5000246;28;20022;-91
2022/04/15 07:09:29;;;;;;;29.52;20.63;;;11.70;99.90;;;;;;5000662;28;20481;-91
2022/04/15 07:11:56;;;;;;;33.85;20.67;;;11.60;99.90;;;;;;5000575;28;20096;-91
2022/04/15 07:14:22;;;;;;;32.75;19.15;;;11.70;99.90;;;;;;5033183;28;20034;-91
2022/04/15 07:16:48;;;;;;;28.77;20.35;;;11.70;99.90;;;;;;5000809;28;20052;-91
2022/04/15 07:19:13;;;;;;;30.33;20.40;;;11.80;99.90;;;;;;5000679;28;20462;-91
2022/04/15 07:21:44;;;;;;;30.23;19.33;;;11.90;99.90;;;;;;5000385;28;20061;-91
2022/04/15 07:24:10;;;;;;;32.15;18.25;;;12.00;99.90;;;;;;4999819;28;20041;-91
2022/04/15 07:26:36;;;;;;;28.92;18.65;;;12.10;99.90;;;;;;5016959;28;20536;-91
2022/04/15 07:29:02;;;;;;;31.08;16.88;;;12.20;99.90;;;;;;5032882;28;20034;-91
2022/04/15 07:31:28;;;;;;;27.08;15.88;;;12.30;99.90;;;;;;4999857;28;20382;-90
2022/04/15 07:33:54;;;;;;;25.10;16.48;;;12.30;99.90;;;;;;5032803;28;20068;-91
2022/04/15 07:39:03;;;;;;;25.80;14.13;;;12.50;99.90;;;;;;5033137;28;20120;-92
2022/04/15 07:41:28;;;;;;;21.38;13.10;;;12.60;99.90;;;;;;4999048;28;20030;-91
2022/04/15 07:43:54;;;;;;;23.05;12.40;;;12.70;99.90;;;;;;5032393;28;20469;-91
2022/04/15 07:46:20;;;;;;;23.85;14.20;;;12.70;99.90;;;;;;5015816;28;20089;-91
2022/04/15 07:48:46;;;;;;;23.85;13.63;;;12.80;99.90;;;;;;5016578;28;20041;-90
2022/04/15 07:51:11;;;;;;;24.92;14.38;;;12.90;99.90;;;;;;5015559;28;20061;-92
2022/04/15 07:53:37;;;;;;;25.50;14.73;;;13.00;99.90;;;;;;4998709;28;20029;-92
2022/04/15 07:56:03;;;;;;;23.00;14.27;;;13.10;99.90;;;;;;4999624;28;20126;-91
2022/04/15 07:58:29;;;;;;;22.60;14.05;;;13.10;99.90;;;;;;5015650;28;20393;-92
2022/04/15 08:00:55;;;;;;;21.30;14.18;;;13.00;99.90;;;;;;4999532;28;20383;-92
2022/04/15 08:03:25;;;;;;;20.52;13.85;;;13.00;99.90;;;;;;5032904;28;20038;-92
2022/04/15 08:05:51;;;;;;;21.77;15.00;;;13.20;99.90;;;;;;4999631;28;20121;-92
2022/04/15 08:08:17;;;;;;;24.80;13.48;;;13.30;99.90;;;;;;5032259;28;20030;-91
2022/04/15 08:10:43;;;;;;;24.80;14.50;;;13.40;99.90;;;;;;4999332;28;20109;-91
2022/04/15 08:13:08;;;;;;;22.42;13.32;;;13.50;99.90;;;;;;5031715;28;20808;-90
2022/04/15 08:15:34;;;;;;;21.85;14.02;;;13.50;99.90;;;;;;4998755;28;20038;-91
2022/04/15 08:18:01;;;;;;;20.88;13.38;;;13.60;99.90;;;;;;4999296;28;20036;-91
2022/04/15 08:20:26;;;;;;;21.80;14.05;;;13.60;99.90;;;;;;4999494;28;20053;-91
2022/04/15 08:22:52;;;;;;;22.17;15.10;;;13.80;99.90;;;;;;5016395;28;20025;-91
2022/04/15 08:25:18;;;;;;;23.45;15.55;;;13.80;99.90;;;;;;4999137;28;20040;-91
2022/04/15 08:27:44;;;;;;;24.00;16.67;;;13.80;99.90;;;;;;4998594;28;20556;-91
2022/04/15 08:30:10;;;;;;;24.95;16.60;;;13.80;99.90;;;;;;5015936;28;20026;-90
2022/04/15 08:32:35;;;;;;;32.38;17.98;;;13.90;99.90;;;;;;5032145;28;20033;-91
2022/04/15 08:35:20;;;;;;;30.40;20.67;;;14.00;99.90;;;;;;5014860;28;20073;-91
2022/04/15 08:37:46;;;;;;;28.05;19.17;;;14.10;99.90;;;;;;5031409;28;20034;-91
2022/04/15 08:40:12;;;;;;;31.25;18.92;;;14.20;99.90;;;;;;4998419;28;20081;-91
2022/04/15 08:42:41;;;;;;;27.38;18.80;;;14.30;99.90;;;;;;5028341;28;20054;-91
2022/04/15 08:45:10;;;;;;;28.63;18.48;;;14.40;99.90;;;;;;4998679;28;20105;-91
2022/04/15 08:47:37;;;;;;;31.08;21.27;;;14.40;99.90;;;;;;4998533;28;20033;-91
2022/04/15 08:50:05;;;;;;;33.45;22.95;;;14.50;99.90;;;;;;4998981;28;20037;-91
2022/04/15 08:52:31;;;;;;;34.63;22.73;;;14.50;99.90;;;;;;4997529;28;20030;-90
2022/04/15 08:54:58;;;;;;;31.45;21.85;;;14.70;99.90;;;;;;4996396;28;20361;-91
2022/04/15 08:57:24;;;;;;;30.23;21.10;;;14.70;99.90;;;;;;5031134;28;20050;-91
2022/04/15 09:00:40;;;;;;;30.50;20.27;;;15.30;99.90;;;;;;4998024;28;20055;-92
2022/04/15 09:03:06;;;;;;;27.88;18.80;;;16.50;99.90;;;;;;4998013;28;20034;-92
2022/04/15 09:05:32;;;;;;;25.17;18.83;;;17.70;99.90;;;;;;5040296;28;20045;-91
2022/04/15 09:08:06;;;;;;;27.63;18.55;;;17.80;99.90;;;;;;5005925;28;20037;-92
2022/04/15 09:10:35;;;;;;;26.00;17.35;;;18.20;99.90;;;;;;5021894;28;20045;-92
2022/04/15 09:13:08;;;;;;;28.35;18.23;;;18.50;99.90;;;;;;5024177;28;20485;-90
2022/04/15 09:15:35;;;;;;;23.80;16.13;;;17.10;99.90;;;;;;5026902;28;20580;-93
2022/04/15 09:18:01;;;;;;;21.83;14.70;;;17.60;99.90;;;;;;5025307;28;20010;-91
2022/04/15 09:20:34;;;;;;;20.77;13.57;;;19.10;99.90;;;;;;5012321;28;20030;-91
2022/04/15 09:23:10;;;;;;;18.58;13.70;;;19.80;99.90;;;;;;4987765;28;20034;-91
2022/04/15 09:25:39;;;;;;;15.02;11.60;;;19.50;99.90;;;;;;5027060;28;20029;-93
2022/04/15 09:28:05;;;;;;;15.73;10.95;;;19.50;99.90;;;;;;5023686;28;20022;-92
2022/04/15 09:30:36;;;;;;;17.77;11.45;;;19.00;99.90;;;;;;5003872;28;20033;-91
2022/04/15 09:33:03;;;;;;;15.97;11.27;;;19.10;99.90;;;;;;5025295;28;20086;-89
2022/04/15 09:35:57;;;;;;;15.40;10.07;;;18.50;99.90;;;;;;5019901;28;20299;-92
2022/04/15 09:38:44;;;;;;;14.35;9.85;;;18.40;99.90;;;;;;4997410;28;20481;-92
2022/04/15 09:41:29;;;;;;;17.25;11.80;;;18.30;99.90;;;;;;5005332;28;20491;-90
2022/04/15 09:43:59;;;;;;;18.45;11.10;;;18.00;99.90;;;;;;5027130;28;20050;-92
2022/04/15 09:46:29;;;;;;;23.90;11.43;;;18.30;99.90;;;;;;5027148;28;20101;-92
2022/04/15 09:49:08;;;;;;;17.40;10.40;;;18.60;99.90;;;;;;5027167;28;20097;-91
2022/04/15 09:51:43;;;;;;;15.40;10.20;;;18.70;99.90;;;;;;5027506;28;20038;-91
2022/04/15 09:54:18;;;;;;;19.27;10.48;;;18.40;99.90;;;;;;5008674;28;20045;-91
2022/04/15 09:56:46;;;;;;;14.48;10.95;;;18.30;99.90;;;;;;4997740;28;20077;-91
2022/04/15 09:59:15;;;;;;;14.82;11.18;;;18.40;99.90;;;;;;5030002;28;20045;-92
2022/04/15 10:01:55;;;;;;;14.73;9.27;;;19.00;99.90;;;;;;5012699;28;20030;-91
2022/04/15 10:04:24;;;;;;;19.80;10.10;;;19.60;99.90;;;;;;4996425;28;20037;-91
2022/04/15 10:06:50;;;;;;;13.27;8.98;;;20.00;99.90;;;;;;5029747;28;20057;-89
2022/04/15 10:09:17;;;;;;;15.57;10.57;;;20.70;99.90;;;;;;4997130;28;20128;-90
2022/04/15 10:11:44;;;;;;;12.95;9.77;;;20.50;99.90;;;;;;5029677;28;20477;-89
2022/04/15 10:14:14;;;;;;;15.68;9.32;;;19.00;99.90;;;;;;4996876;28;20050;-91
2022/04/15 10:16:42;;;;;;;17.73;11.77;;;17.90;99.90;;;;;;4996090;28;20037;-88
2022/04/15 10:19:09;;;;;;;10.35;8.25;;;17.60;99.90;;;;;;5013445;28;20113;-89
2022/04/15 10:21:41;;;;;;;11.73;6.75;;;18.10;99.90;;;;;;4996805;28;20044;-89
2022/04/15 10:24:09;;;;;;;9.38;5.75;;;19.00;99.90;;;;;;4997075;28;20453;-89
2022/04/15 10:26:46;;;;;;;8.95;6.80;;;19.80;99.90;;;;;;5013846;28;20113;-88
2022/04/15 10:29:12;;;;;;;10.82;6.40;;;19.90;99.90;;;;;;5013484;28;20435;-88
2022/04/15 10:31:45;;;;;;;11.95;7.75;;;19.20;99.90;;;;;;4996544;28;20037;-89
2022/04/15 10:34:44;;;;;;;10.63;6.80;;;19.20;99.90;;;;;;4996507;28;20041;-89
2022/04/15 10:37:09;;;;;;;9.13;6.40;;;19.40;99.90;;;;;;5029781;28;20081;-89
2022/04/15 10:39:48;;;;;;;9.45;4.88;;;18.40;99.90;;;;;;5012724;28;20026;-90
2022/04/15 10:42:18;;;;;;;8.65;5.75;;;17.80;99.90;;;;;;4996780;28;20037;-90
2022/04/15 10:44:48;;;;;;;11.23;5.47;;;18.20;99.90;;;;;;4990861;28;20101;-90
2022/04/15 10:47:20;;;;;;;10.82;5.90;;;18.80;99.90;;;;;;5010917;28;20057;-91
2022/04/15 10:50:06;;;;;;;7.30;5.38;;;19.90;99.90;;;;;;5043255;28;20092;-90
2022/04/15 10:52:36;;;;;;;13.20;6.88;;;20.70;99.10;;;;;;4987923;28;20033;-90
2022/04/15 10:55:12;;;;;;;6.60;4.57;;;21.20;97.40;;;;;;5016105;28;20033;-89
2022/04/15 10:57:41;;;;;;;6.28;4.43;;;20.70;97.70;;;;;;5009947;28;20030;-90
2022/04/15 11:03:22;;;;;;;9.43;5.82;;;18.90;99.90;;;;;;5043114;28;20030;-92
2022/04/15 11:05:52;;;;;;;6.60;4.35;;;18.50;99.90;;;;;;5007615;28;20045;-93
2022/04/15 11:08:20;;;;;;;6.25;4.82;;;18.60;99.90;;;;;;5025225;28;20036;-91
2022/04/15 11:10:55;;;;;;;8.05;5.05;;;19.10;98.20;;;;;;4997854;28;20397;-89
2022/04/15 11:13:32;;;;;;;7.18;3.78;;;19.60;96.50;;;;;;4996078;28;20124;-89
2022/04/15 11:16:16;;;;;;;6.95;3.65;;;20.30;97.30;;;;;;5028555;28;20091;-88
2022/04/15 11:18:58;;;;;;;7.22;3.75;;;20.30;96.90;;;;;;4996051;28;20385;-89
2022/04/15 11:21:37;;;;;;;4.72;3.38;;;20.30;95.10;;;;;;4995653;28;20379;-88
2022/04/15 11:24:13;;;;;;;4.78;3.45;;;20.90;95.70;;;;;;5002015;28;20041;-91
2022/04/15 11:26:44;;;;;;;5.80;2.92;;;20.60;95.30;;;;;;4994004;28;20030;-91
2022/04/15 11:29:12;;;;;;;3.05;2.60;;;20.30;95.90;;;;;;5007758;28;20041;-91
2022/04/15 11:31:40;;;;;;;5.75;2.83;;;20.40;96.60;;;;;;5008487;28;20077;-88
2022/04/15 11:34:22;;;;;;;5.22;3.53;;;20.20;95.40;;;;;;5011515;28;20041;-89
2022/04/15 11:36:58;;;;;;;6.93;2.72;;;20.20;94.90;;;;;;5011081;28;20040;-89
2022/04/15 11:39:25;;;;;;;5.53;2.72;;;20.80;93.30;;;;;;5013634;28;20046;-88
2022/04/15 11:41:54;;;;;;;5.03;2.33;;;21.80;91.70;;;;;;5008336;28;20033;-89
2022/04/15 11:44:22;;;;;;;4.03;2.13;;;22.60;88.20;;;;;;5046183;28;20089;-89
2022/04/15 11:46:52;;;;;;;3.28;2.30;;;22.70;87.90;;;;;;5013025;28;20080;-91
2022/04/15 11:49:48;;;;;;;12.05;2.80;;;21.00;92.10;;;;;;5029432;28;20308;-91
2022/04/15 11:52:30;;;;;;;5.97;2.92;;;19.50;93.20;;;;;;5028641;28;20396;-91
2022/04/15 11:54:58;;;;;;;5.43;2.33;;;19.30;93.50;;;;;;5011400;28;20056;-91
2022/04/15 11:57:25;;;;;;;3.35;2.85;;;19.40;92.80;;;;;;5012624;28;20037;-89
2022/04/15 11:59:52;;;;;;;5.75;3.38;;;19.70;93.30;;;;;;5014624;28;20033;-89
2022/04/15 12:02:18;;;;;;;3.63;2.80;;;19.00;94.60;;;;;;5012879;28;20489;-90
2022/04/15 12:04:55;;;;;;;6.13;2.80;;;18.80;95.40;;;;;;4994769;28;20026;-89
2022/04/15 12:07:23;;;;;;;4.78;2.90;;;18.80;93.80;;;;;;5003289;28;20088;-91
2022/04/15 12:09:50;;;;;;;8.55;3.40;;;19.20;93.30;;;;;;5012750;28;20022;-91
2022/04/15 12:12:16;;;;;;;3.95;2.88;;;20.00;94.50;;;;;;4998975;28;20038;-88
2022/04/15 12:14:43;;;;;;;5.65;3.30;;;20.50;94.70;;;;;;4999336;28;20076;-88
2022/04/15 12:17:17;;;;;;;6.03;3.80;;;20.30;94.00;;;;;;4999272;28;20026;-91
2022/04/15 12:19:43;;;;;;;4.95;3.20;;;19.30;94.90;;;;;;5015384;28;20753;-89
2022/04/15 12:22:09;;;;;;;4.55;2.70;;;19.20;95.10;;;;;;4999025;28;20029;-89
2022/04/15 12:24:35;;;;;;;4.97;2.55;;;19.60;92.30;;;;;;5015648;28;20038;-91
2022/04/15 12:27:01;;;;;;;4.38;2.75;;;19.40;94.10;;;;;;5015883;28;20120;-89
2022/04/15 12:32:13;;;;;;;5.93;2.40;;;20.30;92.40;;;;;;5031178;28;20034;-88
2022/04/15 12:34:39;;;;;;;3.97;2.30;;;20.20;93.30;;;;;;4999315;28;20018;-89
2022/04/15 12:37:05;;;;;;;3.45;2.13;;;19.90;93.10;;;;;;5018096;28;20034;-87
2022/04/15 12:39:30;;;;;;;3.53;2.50;;;19.70;90.50;;;;;;4998406;28;20048;-88
2022/04/15 12:41:56;;;;;;;3.13;2.30;;;19.40;91.60;;;;;;4995725;28;20041;-89
2022/04/15 12:44:32;;;;;;;3.30;2.70;;;19.40;92.40;;;;;;4998759;28;20489;-89
2022/04/15 12:47:02;;;;;;;3.95;2.55;;;19.00;93.40;;;;;;4998399;28;20389;-91
2022/04/15 12:49:35;;;;;;;5.20;2.53;;;18.30;95.10;;;;;;4997918;28;20044;-91
2022/04/15 12:52:08;;;;;;;3.97;2.25;;;18.20;94.60;;;;;;4998224;28;20500;-90
2022/04/15 12:54:34;;;;;;;4.88;2.33;;;18.30;95.10;;;;;;5015552;28;20034;-91
2022/04/15 12:57:00;;;;;;;6.65;2.35;;;18.80;95.10;;;;;;5014114;28;20034;-91